createdAt,value
2017-05-14T00:00:33.860Z,22.01
2017-05-14T00:01:44.432Z,21.97
2017-05-14T00:02:54.722Z,22.01
2017-05-14T00:04:04.693Z,22.14
2017-05-14T00:05:14.985Z,21.97
2017-05-14T00:06:25.271Z,21.99
2017-05-14T00:07:35.487Z,22.03
2017-05-14T00:08:45.763Z,21.96
2017-05-14T00:09:55.732Z,22
2017-05-14T00:11:06.013Z,22.03
2017-05-14T00:12:16.306Z,21.97
2017-05-14T00:13:26.881Z,22
2017-05-14T00:14:36.558Z,21.94
2017-05-14T00:15:46.646Z,21.94
2017-05-14T00:16:56.619Z,22.03
2017-05-14T00:18:06.285Z,22
2017-05-14T00:19:16.825Z,21.96
2017-05-14T00:20:26.795Z,21.97
2017-05-14T00:21:37.080Z,21.94
2017-05-14T00:22:47.368Z,21.91
2017-05-14T00:23:57.869Z,22
2017-05-14T00:25:08.095Z,22.04
2017-05-14T00:26:18.383Z,22
2017-05-14T00:27:28.673Z,21.97
2017-05-14T00:28:38.644Z,21.94
2017-05-14T00:29:48.625Z,22
2017-05-14T00:30:59.165Z,22.03
2017-05-14T00:32:09.141Z,22.03
2017-05-14T00:33:19.112Z,21.96
2017-05-14T00:34:29.395Z,21.94
2017-05-14T00:35:39.671Z,21.96
2017-05-14T00:36:49.889Z,21.97
2017-05-14T00:37:59.869Z,21.83
2017-05-14T00:39:09.840Z,21.97
2017-05-14T00:40:19.823Z,21.94
2017-05-14T00:41:30.109Z,21.94
2017-05-14T00:42:40.637Z,21.99
2017-05-14T00:43:50.616Z,21.91
2017-05-14T00:45:00.901Z,21.96
2017-05-14T00:46:10.570Z,21.92
2017-05-14T00:47:20.850Z,21.94
2017-05-14T00:48:31.073Z,21.92
2017-05-14T00:49:41.368Z,21.96
2017-05-14T00:50:51.353Z,21.94
2017-05-14T00:52:01.634Z,21.94
2017-05-14T00:53:11.744Z,21.94
2017-05-14T00:54:21.974Z,22
2017-05-14T00:55:32.263Z,21.99
2017-05-14T00:56:42.549Z,21.91
2017-05-14T00:57:52.836Z,21.94
2017-05-14T00:59:03.112Z,21.91
2017-05-14T01:00:13.641Z,21.91
2017-05-14T01:01:23.924Z,21.96
2017-05-14T01:02:34.203Z,21.99
2017-05-14T01:03:44.509Z,21.96
2017-05-14T01:04:54.497Z,21.96
2017-05-14T01:06:05.044Z,21.8
2017-05-14T01:07:14.697Z,22
2017-05-14T01:08:24.982Z,21.96
2017-05-14T01:09:35.272Z,21.96
2017-05-14T01:10:45.559Z,21.94
2017-05-14T01:11:56.093Z,21.92
2017-05-14T01:13:06.376Z,21.8
2017-05-14T01:14:16.673Z,21.99
2017-05-14T01:15:26.956Z,21.88
2017-05-14T01:16:37.239Z,21.85
2017-05-14T01:17:47.460Z,21.83
2017-05-14T01:18:57.744Z,21.96
2017-05-14T01:20:08.039Z,21.84
2017-05-14T01:21:18.377Z,22
2017-05-14T01:22:28.661Z,21.88
2017-05-14T01:23:39.188Z,21.83
2017-05-14T01:24:49.542Z,21.92
2017-05-14T01:25:59.509Z,21.94
2017-05-14T01:27:09.790Z,21.89
2017-05-14T01:28:20.073Z,21.91
2017-05-14T01:29:30.606Z,21.85
2017-05-14T01:30:40.884Z,21.88
2017-05-14T01:31:51.165Z,21.89
2017-05-14T01:33:01.144Z,21.96
2017-05-14T01:34:11.115Z,21.91
2017-05-14T01:35:21.640Z,21.88
2017-05-14T01:36:31.941Z,21.83
2017-05-14T01:37:41.921Z,21.8
2017-05-14T01:38:51.286Z,21.88
2017-05-14T01:40:01.575Z,21.84
2017-05-14T01:41:12.099Z,21.85
2017-05-14T01:42:22.062Z,21.8
2017-05-14T01:43:32.362Z,21.88
2017-05-14T01:44:42.335Z,21.84
2017-05-14T01:45:52.613Z,21.85
2017-05-14T01:47:03.145Z,21.84
2017-05-14T01:48:13.115Z,21.89
2017-05-14T01:49:23.091Z,21.83
2017-05-14T01:50:33.108Z,21.8
2017-05-14T01:51:42.781Z,21.81
2017-05-14T01:52:53.304Z,21.84
2017-05-14T01:54:03.596Z,21.85
2017-05-14T01:55:13.882Z,21.83
2017-05-14T01:56:24.162Z,21.84
2017-05-14T01:57:34.441Z,21.72
2017-05-14T01:58:44.980Z,21.78
2017-05-14T01:59:55.268Z,21.75
2017-05-14T02:01:05.547Z,21.8
2017-05-14T02:02:15.830Z,21.74
2017-05-14T02:03:26.204Z,21.75
2017-05-14T02:04:36.758Z,21.77
2017-05-14T02:05:46.420Z,21.8
2017-05-14T02:06:56.402Z,21.77
2017-05-14T02:08:06.708Z,21.8
2017-05-14T02:09:16.989Z,21.75
2017-05-14T02:10:27.524Z,21.77
2017-05-14T02:11:37.805Z,21.74
2017-05-14T02:12:48.081Z,21.84
2017-05-14T02:13:58.365Z,21.77
2017-05-14T02:15:08.341Z,21.72
2017-05-14T02:16:18.560Z,21.7
2017-05-14T02:17:28.525Z,21.77
2017-05-14T02:18:38.808Z,21.8
2017-05-14T02:19:48.776Z,21.68
2017-05-14T02:20:59.057Z,21.83
2017-05-14T02:22:08.982Z,21.77
2017-05-14T02:23:19.260Z,21.85
2017-05-14T02:24:29.231Z,21.7
2017-05-14T02:25:39.197Z,21.75
2017-05-14T02:26:49.175Z,21.77
2017-05-14T02:27:59.396Z,21.77
2017-05-14T02:29:09.686Z,21.7
2017-05-14T02:30:19.980Z,21.8
2017-05-14T02:31:30.297Z,21.72
2017-05-14T02:32:40.620Z,21.75
2017-05-14T02:33:50.841Z,21.66
2017-05-14T02:35:01.275Z,21.74
2017-05-14T02:36:11.657Z,21.78
2017-05-14T02:37:21.941Z,21.72
2017-05-14T02:38:32.222Z,21.69
2017-05-14T02:39:42.752Z,21.74
2017-05-14T02:40:53.030Z,21.75
2017-05-14T02:42:03.313Z,21.7
2017-05-14T02:43:12.964Z,21.68
2017-05-14T02:44:22.942Z,21.66
2017-05-14T02:45:33.478Z,21.72
2017-05-14T02:46:43.756Z,21.7
2017-05-14T02:47:54.100Z,21.75
2017-05-14T02:49:04.383Z,21.62
2017-05-14T02:50:14.677Z,21.66
2017-05-14T02:51:25.220Z,21.66
2017-05-14T02:52:35.510Z,21.68
2017-05-14T02:53:45.793Z,21.59
2017-05-14T02:54:56.071Z,21.7
2017-05-14T02:56:06.361Z,21.66
2017-05-14T02:57:16.892Z,21.7
2017-05-14T02:58:27.167Z,21.63
2017-05-14T02:59:37.450Z,21.58
2017-05-14T03:00:47.734Z,21.6
2017-05-14T03:01:58.013Z,21.62
2017-05-14T03:03:08.558Z,21.65
2017-05-14T03:04:18.542Z,21.65
2017-05-14T03:05:28.824Z,21.66
2017-05-14T03:06:38.784Z,21.62
2017-05-14T03:07:48.751Z,21.62
2017-05-14T03:08:59.291Z,21.62
2017-05-14T03:10:09.261Z,21.65
2017-05-14T03:11:19.546Z,21.63
2017-05-14T03:12:29.511Z,21.66
2017-05-14T03:13:39.816Z,21.65
2017-05-14T03:14:50.370Z,21.62
2017-05-14T03:16:00.662Z,21.63
2017-05-14T03:17:10.943Z,21.65
2017-05-14T03:18:21.231Z,21.59
2017-05-14T03:19:31.211Z,21.63
2017-05-14T03:20:41.735Z,21.62
2017-05-14T03:21:52.017Z,21.65
2017-05-14T03:23:02.291Z,21.66
2017-05-14T03:24:12.274Z,21.59
2017-05-14T03:25:22.548Z,21.65
2017-05-14T03:26:32.761Z,21.6
2017-05-14T03:27:42.728Z,21.6
2017-05-14T03:28:53.007Z,21.62
2017-05-14T03:30:03.283Z,21.66
2017-05-14T03:31:13.563Z,21.62
2017-05-14T03:32:23.838Z,21.66
2017-05-14T03:33:34.115Z,21.6
2017-05-14T03:34:44.404Z,21.68
2017-05-14T03:35:54.684Z,21.54
2017-05-14T03:37:04.341Z,21.6
2017-05-14T03:38:14.557Z,21.54
2017-05-14T03:39:24.840Z,21.63
2017-05-14T03:40:35.122Z,21.56
2017-05-14T03:41:45.398Z,21.62
2017-05-14T03:42:55.683Z,21.68
2017-05-14T03:44:06.223Z,21.6
2017-05-14T03:45:16.551Z,21.63
2017-05-14T03:46:26.528Z,21.54
2017-05-14T03:47:36.856Z,21.62
2017-05-14T03:48:47.141Z,21.58
2017-05-14T03:49:57.670Z,21.58
2017-05-14T03:51:07.953Z,21.62
2017-05-14T03:52:18.237Z,21.53
2017-05-14T03:53:28.511Z,21.6
2017-05-14T03:54:38.852Z,21.63
2017-05-14T03:55:49.381Z,21.51
2017-05-14T03:56:59.348Z,21.53
2017-05-14T03:58:09.622Z,21.62
2017-05-14T03:59:19.908Z,21.56
2017-05-14T04:00:29.880Z,21.51
2017-05-14T04:01:40.416Z,21.54
2017-05-14T04:02:50.712Z,21.53
2017-05-14T04:04:00.685Z,21.56
2017-05-14T04:05:10.650Z,21.65
2017-05-14T04:06:20.622Z,21.62
2017-05-14T04:07:31.196Z,21.6
2017-05-14T04:08:41.518Z,21.63
2017-05-14T04:09:51.801Z,21.6
2017-05-14T04:11:01.463Z,21.53
2017-05-14T04:12:11.743Z,21.54
2017-05-14T04:13:22.273Z,21.5
2017-05-14T04:14:32.255Z,21.56
2017-05-14T04:15:42.545Z,21.5
2017-05-14T04:16:52.820Z,21.65
2017-05-14T04:18:02.792Z,21.63
2017-05-14T04:19:13.340Z,21.63
2017-05-14T04:20:23.310Z,21.51
2017-05-14T04:21:33.282Z,21.56
2017-05-14T04:22:43.565Z,21.56
2017-05-14T04:23:53.853Z,21.51
2017-05-14T04:25:03.757Z,21.63
2017-05-14T04:26:14.033Z,21.58
2017-05-14T04:27:23.682Z,21.54
2017-05-14T04:28:33.961Z,21.5
2017-05-14T04:29:43.952Z,21.59
2017-05-14T04:30:54.484Z,21.56
2017-05-14T04:32:04.766Z,21.62
2017-05-14T04:33:15.043Z,21.65
2017-05-14T04:34:25.037Z,21.63
2017-05-14T04:35:35.314Z,21.54
2017-05-14T04:36:45.536Z,21.59
2017-05-14T04:37:55.814Z,21.6
2017-05-14T04:39:05.778Z,21.6
2017-05-14T04:40:16.067Z,21.54
2017-05-14T04:41:26.345Z,21.63
2017-05-14T04:42:36.892Z,21.62
2017-05-14T04:43:46.863Z,21.65
2017-05-14T04:44:57.142Z,21.59
2017-05-14T04:46:07.424Z,21.65
2017-05-14T04:47:17.705Z,21.58
2017-05-14T04:48:28.250Z,21.72
2017-05-14T04:49:38.546Z,21.65
2017-05-14T04:50:48.824Z,21.68
2017-05-14T04:51:58.802Z,21.7
2017-05-14T04:53:08.792Z,21.7
2017-05-14T04:54:19.009Z,21.72
2017-05-14T04:55:29.287Z,21.7
2017-05-14T04:56:39.249Z,21.7
2017-05-14T04:57:49.532Z,21.7
2017-05-14T04:58:59.829Z,21.7
2017-05-14T05:00:10.055Z,21.88
2017-05-14T05:01:20.023Z,21.75
2017-05-14T05:02:30.305Z,21.85
2017-05-14T05:03:40.268Z,21.88
2017-05-14T05:04:50.559Z,21.83
2017-05-14T05:06:01.093Z,21.91
2017-05-14T05:07:11.389Z,21.84
2017-05-14T05:08:21.364Z,21.89
2017-05-14T05:09:31.645Z,21.92
2017-05-14T05:10:41.925Z,21.89
2017-05-14T05:11:51.831Z,21.96
2017-05-14T05:13:02.118Z,21.91
2017-05-14T05:14:12.398Z,22.01
2017-05-14T05:15:22.684Z,21.96
2017-05-14T05:16:32.048Z,22
2017-05-14T05:17:42.274Z,21.97
2017-05-14T05:18:52.554Z,22.06
2017-05-14T05:20:02.836Z,22.04
2017-05-14T05:21:13.127Z,22
2017-05-14T05:22:23.102Z,22
2017-05-14T05:23:33.637Z,22
2017-05-14T05:24:43.917Z,22.03
2017-05-14T05:25:54.209Z,22
2017-05-14T05:27:04.489Z,22.06
2017-05-14T05:28:14.771Z,22.08
2017-05-14T05:29:24.998Z,22.14
2017-05-14T05:30:35.288Z,22.1
2017-05-14T05:31:45.565Z,22.14
2017-05-14T05:32:55.226Z,22.14
2017-05-14T05:34:05.203Z,22.14
2017-05-14T05:35:15.422Z,22.21
2017-05-14T05:36:25.405Z,22.14
2017-05-14T05:37:35.366Z,22.14
2017-05-14T05:38:45.651Z,22.19
2017-05-14T05:39:55.940Z,22.21
2017-05-14T05:41:06.478Z,22.14
2017-05-14T05:42:16.758Z,22.15
2017-05-14T05:43:26.738Z,22.15
2017-05-14T05:44:36.714Z,22.21
2017-05-14T05:45:46.715Z,22.16
2017-05-14T05:46:57.259Z,22.33
2017-05-14T05:48:07.559Z,22.26
2017-05-14T05:49:17.848Z,22.3
2017-05-14T05:50:28.133Z,22.37
2017-05-14T05:51:38.448Z,22.31
2017-05-14T05:52:49.014Z,22.34
2017-05-14T05:53:58.989Z,22.37
2017-05-14T05:55:09.275Z,22.37
2017-05-14T05:56:19.553Z,22.28
2017-05-14T05:57:29.863Z,22.36
2017-05-14T05:58:40.399Z,22.4
2017-05-14T05:59:50.682Z,22.4
2017-05-14T06:01:00.971Z,22.4
2017-05-14T06:02:11.256Z,22.44
2017-05-14T06:03:21.242Z,22.41
2017-05-14T06:04:31.792Z,22.43
2017-05-14T06:05:41.761Z,22.43
2017-05-14T06:06:52.048Z,22.43
2017-05-14T06:08:02.331Z,22.49
2017-05-14T06:09:12.616Z,22.51
2017-05-14T06:10:23.147Z,22.49
2017-05-14T06:11:33.115Z,22.51
2017-05-14T06:12:43.405Z,22.51
2017-05-14T06:13:53.686Z,22.53
2017-05-14T06:15:03.985Z,22.55
2017-05-14T06:16:14.208Z,22.52
2017-05-14T06:17:24.498Z,22.53
2017-05-14T06:18:34.790Z,22.58
2017-05-14T06:19:45.082Z,22.52
2017-05-14T06:20:55.374Z,22.58
2017-05-14T06:22:05.328Z,22.58
2017-05-14T06:23:15.617Z,22.58
2017-05-14T06:24:25.895Z,22.62
2017-05-14T06:25:36.184Z,22.58
2017-05-14T06:26:46.167Z,22.51
2017-05-14T06:27:56.085Z,22.65
2017-05-14T06:29:06.378Z,22.56
2017-05-14T06:30:16.346Z,22.59
2017-05-14T06:31:26.326Z,22.56
2017-05-14T06:32:36.613Z,22.67
2017-05-14T06:33:47.156Z,22.63
2017-05-14T06:34:57.162Z,22.7
2017-05-14T06:36:07.133Z,22.63
2017-05-14T06:37:17.425Z,22.67
2017-05-14T06:38:27.726Z,22.68
2017-05-14T06:39:38.256Z,22.7
2017-05-14T06:40:48.580Z,22.68
2017-05-14T06:41:58.558Z,22.7
2017-05-14T06:43:08.852Z,22.67
2017-05-14T06:44:19.147Z,22.71
2017-05-14T06:45:29.416Z,22.7
2017-05-14T06:46:39.706Z,22.71
2017-05-14T06:47:49.679Z,22.73
2017-05-14T06:48:59.658Z,22.71
2017-05-14T06:50:09.626Z,22.62
2017-05-14T06:51:20.171Z,22.71
2017-05-14T06:52:30.156Z,22.73
2017-05-14T06:53:39.823Z,22.73
2017-05-14T06:54:50.124Z,22.67
2017-05-14T06:56:00.423Z,22.68
2017-05-14T06:57:10.661Z,22.67
2017-05-14T06:58:20.955Z,22.73
2017-05-14T06:59:31.255Z,22.8
2017-05-14T07:00:41.540Z,22.8
2017-05-14T07:01:51.834Z,22.76
2017-05-14T07:03:02.376Z,22.77
2017-05-14T07:04:12.674Z,22.78
2017-05-14T07:05:22.962Z,22.78
2017-05-14T07:06:33.259Z,22.77
2017-05-14T07:07:43.574Z,22.74
2017-05-14T07:08:54.111Z,22.81
2017-05-14T07:10:04.404Z,22.77
2017-05-14T07:11:14.683Z,22.74
2017-05-14T07:12:24.668Z,22.76
2017-05-14T07:13:34.963Z,22.76
2017-05-14T07:14:45.517Z,22.78
2017-05-14T07:15:55.491Z,22.76
2017-05-14T07:17:05.782Z,22.78
2017-05-14T07:18:15.478Z,22.76
2017-05-14T07:19:25.457Z,22.84
2017-05-14T07:20:35.989Z,22.76
2017-05-14T07:21:46.282Z,22.76
2017-05-14T07:22:56.259Z,22.76
2017-05-14T07:24:06.560Z,22.86
2017-05-14T07:25:16.852Z,22.86
2017-05-14T07:26:27.429Z,22.77
2017-05-14T07:27:37.418Z,22.86
2017-05-14T07:28:47.755Z,22.88
2017-05-14T07:29:57.747Z,22.84
2017-05-14T07:31:08.037Z,22.88
2017-05-14T07:32:18.581Z,22.83
2017-05-14T07:33:28.925Z,22.88
2017-05-14T07:34:39.217Z,22.84
2017-05-14T07:35:49.518Z,22.84
2017-05-14T07:36:59.796Z,22.83
2017-05-14T07:38:10.383Z,22.86
2017-05-14T07:39:20.371Z,22.81
2017-05-14T07:40:30.667Z,22.84
2017-05-14T07:41:40.635Z,22.89
2017-05-14T07:42:50.921Z,22.86
2017-05-14T07:44:01.458Z,22.83
2017-05-14T07:45:11.741Z,22.86
2017-05-14T07:46:22.038Z,22.88
2017-05-14T07:47:32.021Z,22.91
2017-05-14T07:48:42.313Z,22.86
2017-05-14T07:49:52.849Z,22.83
2017-05-14T07:51:03.136Z,22.89
2017-05-14T07:52:12.796Z,22.86
2017-05-14T07:53:23.078Z,22.86
2017-05-14T07:54:33.365Z,22.81
2017-05-14T07:55:43.908Z,22.84
2017-05-14T07:56:53.893Z,22.83
2017-05-14T07:58:03.871Z,22.88
2017-05-14T07:59:14.164Z,22.81
2017-05-14T08:00:24.439Z,22.89
2017-05-14T08:01:34.666Z,22.92
2017-05-14T08:02:45.005Z,22.89
2017-05-14T08:03:55.308Z,22.89
2017-05-14T08:05:05.591Z,22.84
2017-05-14T08:06:15.574Z,22.91
2017-05-14T08:07:25.803Z,22.89
2017-05-14T08:08:36.092Z,22.92
2017-05-14T08:09:46.390Z,22.89
2017-05-14T08:10:56.426Z,22.91
2017-05-14T08:12:06.713Z,22.92
2017-05-14T08:13:17.319Z,22.88
2017-05-14T08:14:27.611Z,22.88
2017-05-14T08:15:37.903Z,22.93
2017-05-14T08:16:48.195Z,22.93
2017-05-14T08:17:58.474Z,22.91
2017-05-14T08:19:09.013Z,23.01
2017-05-14T08:20:19.295Z,22.99
2017-05-14T08:21:29.274Z,23.04
2017-05-14T08:22:39.255Z,22.93
2017-05-14T08:23:49.574Z,22.93
2017-05-14T08:24:59.791Z,22.96
2017-05-14T08:26:09.769Z,22.92
2017-05-14T08:27:19.751Z,22.95
2017-05-14T08:28:30.043Z,22.93
2017-05-14T08:29:40.024Z,22.99
2017-05-14T08:30:50.559Z,22.96
2017-05-14T08:32:00.843Z,22.92
2017-05-14T08:33:11.135Z,22.96
2017-05-14T08:34:21.425Z,22.98
2017-05-14T08:35:31.716Z,23.02
2017-05-14T08:36:42.302Z,22.95
2017-05-14T08:37:52.277Z,22.99
2017-05-14T08:39:02.585Z,22.99
2017-05-14T08:40:12.876Z,22.95
2017-05-14T08:41:23.163Z,22.96
2017-05-14T08:42:33.723Z,22.99
2017-05-14T08:43:43.708Z,22.99
2017-05-14T08:44:54.009Z,23.01
2017-05-14T08:46:04.302Z,23.02
2017-05-14T08:47:14.593Z,22.99
2017-05-14T08:48:24.819Z,22.99
2017-05-14T08:49:35.110Z,23.01
2017-05-14T08:50:45.399Z,23.02
2017-05-14T08:51:55.686Z,23.02
2017-05-14T08:53:05.971Z,23.02
2017-05-14T08:54:16.202Z,23.01
2017-05-14T08:55:26.175Z,23.04
2017-05-14T08:56:36.460Z,22.96
2017-05-14T08:57:46.429Z,23.06
2017-05-14T08:58:56.404Z,22.96
2017-05-14T09:00:06.949Z,23.04
2017-05-14T09:01:17.242Z,23.04
2017-05-14T09:02:27.543Z,23.08
2017-05-14T09:03:37.226Z,23.01
2017-05-14T09:04:47.530Z,23.06
2017-05-14T09:05:58.078Z,22.96
2017-05-14T09:07:08.385Z,22.99
2017-05-14T09:08:18.364Z,22.99
2017-05-14T09:09:28.651Z,23.01
2017-05-14T09:10:38.938Z,22.99
2017-05-14T09:11:49.181Z,22.99
2017-05-14T09:12:59.473Z,22.99
2017-05-14T09:14:09.456Z,23.04
2017-05-14T09:15:19.760Z,22.96
2017-05-14T09:16:30.068Z,23.02
2017-05-14T09:17:40.319Z,23.02
2017-05-14T09:18:50.289Z,23.04
2017-05-14T09:20:00.573Z,22.98
2017-05-14T09:21:10.864Z,22.99
2017-05-14T09:22:20.567Z,22.98
2017-05-14T09:23:30.801Z,23.07
2017-05-14T09:24:41.078Z,23.06
2017-05-14T09:25:51.069Z,23.02
2017-05-14T09:27:01.368Z,23.01
2017-05-14T09:28:11.031Z,23.01
2017-05-14T09:29:21.573Z,23.02
2017-05-14T09:30:31.856Z,23.07
2017-05-14T09:31:42.142Z,22.99
2017-05-14T09:32:52.434Z,23.04
2017-05-14T09:34:02.411Z,23.02
2017-05-14T09:35:12.638Z,23.04
2017-05-14T09:36:22.619Z,23.1
2017-05-14T09:37:32.917Z,22.98
2017-05-14T09:38:43.229Z,23.06
2017-05-14T09:39:53.219Z,23.02
2017-05-14T09:41:03.760Z,23.07
2017-05-14T09:42:13.732Z,23.01
2017-05-14T09:43:24.020Z,23.01
2017-05-14T09:44:34.327Z,23.04
2017-05-14T09:45:44.610Z,23.06
2017-05-14T09:46:55.153Z,23.01
2017-05-14T09:48:05.130Z,23.02
2017-05-14T09:49:15.425Z,23.04
2017-05-14T09:50:25.724Z,23.01
2017-05-14T09:51:36.018Z,23.01
2017-05-14T09:52:46.561Z,23.01
2017-05-14T09:53:56.864Z,23.01
2017-05-14T09:55:06.845Z,22.99
2017-05-14T09:56:17.143Z,23.07
2017-05-14T09:57:26.185Z,23.02
2017-05-14T09:58:36.412Z,22.98
2017-05-14T09:59:46.395Z,22.98
2017-05-14T10:00:56.687Z,23.04
2017-05-14T10:02:06.977Z,23.01
2017-05-14T10:03:17.267Z,23.01
2017-05-14T10:04:27.492Z,23.1
2017-05-14T10:05:37.168Z,23.06
2017-05-14T10:06:47.140Z,23.06
2017-05-14T10:07:57.427Z,23.06
2017-05-14T10:09:07.407Z,22.96
2017-05-14T10:10:17.641Z,23.04
2017-05-14T10:11:27.927Z,23.01
2017-05-14T10:12:38.237Z,23.08
2017-05-14T10:13:47.908Z,23.04
2017-05-14T10:14:57.900Z,23.01
2017-05-14T10:16:08.170Z,23.01
2017-05-14T10:17:18.458Z,22.98
2017-05-14T10:18:28.754Z,23.06
2017-05-14T10:19:38.734Z,23.07
2017-05-14T10:20:49.020Z,22.98
2017-05-14T10:21:59.557Z,23.01
2017-05-14T10:23:09.847Z,23.06
2017-05-14T10:24:20.137Z,23.02
2017-05-14T10:25:30.430Z,23.01
2017-05-14T10:26:40.727Z,23.06
2017-05-14T10:27:50.966Z,23.02
2017-05-14T10:29:01.261Z,23.06
2017-05-14T10:30:11.541Z,23.02
2017-05-14T10:31:21.531Z,23.08
2017-05-14T10:32:32.015Z,23.11
2017-05-14T10:33:41.937Z,23.06
2017-05-14T10:34:52.228Z,23.04
2017-05-14T10:36:02.519Z,23.07
2017-05-14T10:37:12.495Z,23.07
2017-05-14T10:38:22.152Z,23.08
2017-05-14T10:39:32.686Z,23.07
2017-05-14T10:40:42.992Z,23.02
2017-05-14T10:41:53.277Z,23.04
2017-05-14T10:43:03.573Z,23.07
2017-05-14T10:44:13.547Z,23.06
2017-05-14T10:45:24.098Z,23.08
2017-05-14T10:46:34.071Z,23.02
2017-05-14T10:47:44.056Z,23.07
2017-05-14T10:48:54.338Z,23.11
2017-05-14T10:50:04.623Z,23.06
2017-05-14T10:51:15.208Z,23.08
2017-05-14T10:52:25.506Z,23.02
2017-05-14T10:53:35.478Z,23.08
2017-05-14T10:54:45.773Z,23.01
2017-05-14T10:55:55.746Z,23.06
2017-05-14T10:57:05.985Z,23.06
2017-05-14T10:58:16.277Z,23.06
2017-05-14T10:59:26.583Z,23.01
2017-05-14T11:00:36.893Z,23.11
2017-05-14T11:01:47.175Z,23.07
2017-05-14T11:02:58.073Z,23.06
2017-05-14T11:04:08.382Z,23.08
2017-05-14T11:05:18.366Z,23.02
2017-05-14T11:06:28.059Z,23.11
2017-05-14T11:07:38.386Z,23.04
2017-05-14T11:08:48.927Z,23.04
2017-05-14T11:09:59.217Z,23.07
2017-05-14T11:11:09.510Z,23.06
2017-05-14T11:12:19.511Z,23.08
2017-05-14T11:13:29.814Z,23.1
2017-05-14T11:14:40.352Z,23.04
2017-05-14T11:15:50.637Z,23.06
2017-05-14T11:17:00.922Z,23.1
2017-05-14T11:18:11.217Z,23.08
2017-05-14T11:19:21.516Z,23.04
2017-05-14T11:20:32.110Z,23.11
2017-05-14T11:21:42.424Z,23.11
2017-05-14T11:22:52.397Z,23.11
2017-05-14T11:24:02.692Z,23.02
2017-05-14T11:25:12.995Z,23.07
2017-05-14T11:26:23.270Z,23.06
2017-05-14T11:27:33.562Z,23.11
2017-05-14T11:28:43.537Z,23.04
2017-05-14T11:29:53.827Z,23.1
2017-05-14T11:31:04.126Z,23.06
2017-05-14T11:32:14.407Z,23.08
2017-05-14T11:33:24.090Z,23.11
2017-05-14T11:34:34.431Z,23.07
2017-05-14T11:35:44.734Z,23.11
2017-05-14T11:36:55.016Z,23.13
2017-05-14T11:38:05.261Z,23.08
2017-05-14T11:39:14.920Z,23.06
2017-05-14T11:40:25.211Z,23.07
2017-05-14T11:41:35.514Z,23.1
2017-05-14T11:42:45.826Z,23.06
2017-05-14T11:43:56.061Z,23.07
2017-05-14T11:45:06.354Z,23.07
2017-05-14T11:46:16.031Z,23.02
2017-05-14T11:47:26.318Z,23.1
2017-05-14T11:48:36.608Z,23.08
2017-05-14T11:49:47.142Z,23.1
2017-05-14T11:50:57.431Z,23.11
2017-05-14T11:52:07.425Z,23.08
2017-05-14T11:53:17.710Z,23.14
2017-05-14T11:54:27.991Z,23.08
2017-05-14T11:55:38.529Z,23.14
2017-05-14T11:56:48.832Z,23.13
2017-05-14T11:57:59.120Z,23.1
2017-05-14T11:59:09.408Z,23.1
2017-05-14T12:00:19.717Z,23.1
2017-05-14T12:01:30.309Z,23.11
2017-05-14T12:02:40.291Z,23.11
2017-05-14T12:03:50.577Z,23.11
2017-05-14T12:05:00.883Z,23.07
2017-05-14T12:06:11.171Z,23.13
2017-05-14T12:07:21.704Z,23.08
2017-05-14T12:08:32.012Z,23.13
2017-05-14T12:09:42.307Z,23.1
2017-05-14T12:10:52.289Z,23.13
2017-05-14T12:12:02.586Z,23.14
2017-05-14T12:13:13.170Z,23.04
2017-05-14T12:14:23.468Z,23.11
2017-05-14T12:15:33.767Z,23.14
2017-05-14T12:16:44.063Z,23.18
2017-05-14T12:17:54.350Z,23.14
2017-05-14T12:19:04.581Z,23.07
2017-05-14T12:20:14.554Z,23.13
2017-05-14T12:21:24.849Z,23.17
2017-05-14T12:22:35.142Z,23.16
2017-05-14T12:23:45.120Z,23.08
2017-05-14T12:24:55.657Z,23.2
2017-05-14T12:26:05.944Z,23.13
2017-05-14T12:27:16.231Z,23.13
2017-05-14T12:28:26.535Z,23.08
2017-05-14T12:29:36.840Z,23.14
2017-05-14T12:30:47.384Z,23.16
2017-05-14T12:31:57.736Z,23.13
2017-05-14T12:33:08.032Z,23.11
2017-05-14T12:34:18.326Z,23.11
2017-05-14T12:35:28.615Z,23.14
2017-05-14T12:36:39.161Z,23.1
2017-05-14T12:37:49.474Z,23.16
2017-05-14T12:38:59.769Z,23.16
2017-05-14T12:40:09.745Z,23.14
2017-05-14T12:41:20.049Z,23.08
2017-05-14T12:42:30.609Z,23.16
2017-05-14T12:43:40.912Z,23.07
2017-05-14T12:44:50.895Z,23.13
2017-05-14T12:46:00.880Z,23.13
2017-05-14T12:47:11.177Z,23.11
2017-05-14T12:48:21.102Z,23.18
2017-05-14T12:49:31.077Z,23.13
2017-05-14T12:50:41.374Z,23.1
2017-05-14T12:51:51.375Z,23.13
2017-05-14T12:53:01.399Z,23.06
2017-05-14T12:54:12.005Z,23.11
2017-05-14T12:55:22.299Z,23.11
2017-05-14T12:56:32.603Z,23.16
2017-05-14T12:57:42.887Z,23.14
2017-05-14T12:58:53.179Z,23.08
2017-05-14T13:00:03.723Z,23.08
2017-05-14T13:01:14.013Z,23.13
2017-05-14T13:02:24.314Z,23.01
2017-05-14T13:03:34.281Z,23.16
2017-05-14T13:04:44.274Z,23.14
2017-05-14T13:05:54.813Z,23.14
2017-05-14T13:07:05.101Z,23.1
2017-05-14T13:08:15.411Z,23.14
2017-05-14T13:09:25.083Z,23.14
2017-05-14T13:10:35.402Z,23.17
2017-05-14T13:11:45.942Z,23.08
2017-05-14T13:12:56.229Z,23.1
2017-05-14T13:14:06.513Z,23.13
2017-05-14T13:15:16.807Z,23.16
2017-05-14T13:16:27.095Z,23.16
2017-05-14T13:17:37.634Z,23.06
2017-05-14T13:18:47.838Z,23.14
2017-05-14T13:19:58.140Z,23.13
2017-05-14T13:21:08.441Z,23.16
2017-05-14T13:22:18.740Z,23.11
2017-05-14T13:23:29.344Z,23.06
2017-05-14T13:24:39.314Z,23.06
2017-05-14T13:25:49.617Z,23.04
2017-05-14T13:26:59.917Z,23.06
2017-05-14T13:28:10.211Z,23.08
2017-05-14T13:29:20.753Z,23.08
2017-05-14T13:30:31.067Z,23.06
2017-05-14T13:31:41.358Z,23.02
2017-05-14T13:32:51.642Z,23.06
2017-05-14T13:34:01.940Z,23.08
2017-05-14T13:35:12.481Z,22.99
2017-05-14T13:36:22.791Z,22.99
2017-05-14T13:37:33.079Z,23.01
2017-05-14T13:38:43.368Z,23.01
2017-05-14T13:39:53.664Z,23.04
2017-05-14T13:41:04.203Z,23.06
2017-05-14T13:42:14.496Z,22.98
2017-05-14T13:43:24.492Z,22.98
2017-05-14T13:44:34.828Z,22.99
2017-05-14T13:45:45.124Z,23.04
2017-05-14T13:46:55.675Z,23.04
2017-05-14T13:48:05.645Z,23.01
2017-05-14T13:49:15.929Z,23.02
2017-05-14T13:50:26.203Z,23.06
2017-05-14T13:51:36.189Z,22.98
2017-05-14T13:52:46.425Z,23.02
2017-05-14T13:53:56.710Z,23.02
2017-05-14T13:55:07.006Z,22.96
2017-05-14T13:56:16.687Z,22.91
2017-05-14T13:57:26.971Z,23.01
2017-05-14T13:58:37.199Z,23.06
2017-05-14T13:59:47.492Z,22.98
2017-05-14T14:00:57.772Z,22.95
2017-05-14T14:02:08.059Z,23.01
2017-05-14T14:03:18.345Z,22.96
2017-05-14T14:04:28.899Z,22.99
2017-05-14T14:05:39.188Z,22.98
2017-05-14T14:06:49.485Z,22.96
2017-05-14T14:07:59.768Z,22.96
2017-05-14T14:09:10.061Z,22.96
2017-05-14T14:10:20.603Z,22.93
2017-05-14T14:11:30.912Z,22.96
2017-05-14T14:12:41.210Z,22.95
2017-05-14T14:13:51.510Z,22.92
2017-05-14T14:15:01.478Z,22.91
2017-05-14T14:16:12.034Z,22.91
2017-05-14T14:17:22.329Z,22.91
2017-05-14T14:18:32.624Z,22.83
2017-05-14T14:19:42.930Z,22.86
2017-05-14T14:20:53.220Z,22.81
2017-05-14T14:22:03.781Z,22.89
2017-05-14T14:23:13.754Z,22.89
2017-05-14T14:24:24.044Z,22.81
2017-05-14T14:25:34.335Z,22.84
2017-05-14T14:26:44.329Z,22.86
2017-05-14T14:27:54.882Z,22.88
2017-05-14T14:29:05.184Z,22.83
2017-05-14T14:30:15.167Z,22.86
2017-05-14T14:31:25.151Z,22.83
2017-05-14T14:32:35.127Z,22.84
2017-05-14T14:33:45.687Z,22.89
2017-05-14T14:34:55.654Z,22.77
2017-05-14T14:36:05.634Z,22.86
2017-05-14T14:37:15.935Z,22.86
2017-05-14T14:38:26.325Z,22.88
2017-05-14T14:39:36.553Z,22.83
2017-05-14T14:40:46.854Z,22.83
2017-05-14T14:41:56.842Z,22.84
2017-05-14T14:43:06.817Z,22.86
2017-05-14T14:44:17.107Z,22.84
2017-05-14T14:45:27.350Z,22.91
2017-05-14T14:46:37.633Z,22.84
2017-05-14T14:47:47.919Z,22.89
2017-05-14T14:48:57.889Z,22.88
2017-05-14T14:50:07.873Z,22.88
2017-05-14T14:51:18.096Z,22.74
2017-05-14T14:52:28.393Z,22.76
2017-05-14T14:53:38.361Z,22.76
2017-05-14T14:54:48.646Z,22.77
2017-05-14T14:55:58.624Z,22.77
2017-05-14T14:57:09.223Z,22.74
2017-05-14T14:58:19.510Z,22.76
2017-05-14T14:59:29.793Z,22.77
2017-05-14T15:00:40.081Z,22.74
2017-05-14T15:01:49.742Z,22.74
2017-05-14T15:03:00.279Z,22.78
2017-05-14T15:04:10.569Z,22.74
2017-05-14T15:05:20.863Z,22.77
2017-05-14T15:06:31.143Z,22.74
2017-05-14T15:07:41.424Z,22.8
2017-05-14T15:08:51.736Z,22.8